Time,TemperatureF,DewpointF,PressureIn,WindDirection,WindDirectionDegrees,WindSpeedMPH,WindSpeedGustMPH,Humidity,HourlyPrecipIn,Conditions,Clouds,dailyrainin,SoftwareType,DateUTC
2013-05-31 00:04:00,39.0,34.0,30.20,SW,215,0.0,-999.0,81,-99.99,,,0.00,weatherlink.com 1.10,2013-05-31 07:04:00,
2013-05-31 00:19:00,36.5,32.0,30.20,SE,124,2.0,-999.0,84,-99.99,,,0.00,weatherlink.com 1.10,2013-05-31 07:19:00,
2013-05-31 00:34:00,36.9,34.0,30.21,SE,131,0.0,-999.0,88,-99.99,,,0.00,weatherlink.com 1.10,2013-05-31 07:34:00,
2013-05-31 00:49:00,36.9,33.0,30.21,SSE,150,0.0,-999.0,87,-99.99,,,0.00,weatherlink.com 1.10,2013-05-31 07:49:00,
2013-05-31 01:04:00,36.7,33.0,30.21,ESE,122,0.0,-999.0,87,-99.99,,,0.00,weatherlink.com 1.10,2013-05-31 08:04:00,
2013-05-31 01:19:00,35.9,33.0,30.21,SE,133,0.0,-999.0,88,-99.99,,,0.00,weatherlink.com 1.10,2013-05-31 08:19:00,
2013-05-31 01:34:00,35.7,32.0,30.21,SSE,158,0.0,-999.0,86,-99.99,,,0.00,weatherlink.com 1.10,2013-05-31 08:34:00,
2013-05-31 01:49:00,36.4,33.0,30.22,SW,227,0.0,-999.0,88,-99.99,,,0.00,weatherlink.com 1.10,2013-05-31 08:49:00,
2013-05-31 02:04:00,34.6,32.0,30.23,SW,226,0.0,-999.0,89,-99.99,,,0.00,weatherlink.com 1.10,2013-05-31 09:04:00,
2013-05-31 02:19:00,33.8,31.0,30.23,SE,143,1.0,-999.0,88,-99.99,,,0.00,weatherlink.com 1.10,2013-05-31 09:19:00,
2013-05-31 02:34:00,33.2,31.0,30.23,SE,136,0.0,-999.0,91,-99.99,,,0.00,weatherlink.com 1.10,2013-05-31 09:34:00,
2013-05-31 02:49:00,33.2,31.0,30.23,SE,138,1.0,-999.0,92,-99.99,,,0.00,weatherlink.com 1.10,2013-05-31 09:49:00,
2013-05-31 03:04:00,32.7,31.0,30.23,South,169,1.0,-999.0,92,-99.99,,,0.00,weatherlink.com 1.10,2013-05-31 10:04:00,
2013-05-31 03:19:00,33.2,31.0,30.23,SSE,152,2.0,-999.0,91,-99.99,,,0.00,weatherlink.com 1.10,2013-05-31 10:19:00,
2013-05-31 03:34:00,32.7,31.0,30.23,SE,138,3.0,-999.0,92,-99.99,,,0.00,weatherlink.com 1.10,2013-05-31 10:34:00,
2013-05-31 03:49:00,32.3,30.0,30.24,SW,224,1.0,-999.0,92,-99.99,,,0.00,weatherlink.com 1.10,2013-05-31 10:49:00,
2013-05-31 04:04:00,32.6,31.0,30.24,ESE,114,0.0,-999.0,92,-99.99,,,0.00,weatherlink.com 1.10,2013-05-31 11:04:00,
2013-05-31 04:19:00,31.8,30.0,30.23,South,183,1.0,-999.0,93,-99.99,,,0.00,weatherlink.com 1.10,2013-05-31 11:19:00,
2013-05-31 04:34:00,33.0,32.0,30.23,ESE,121,0.0,-999.0,94,-99.99,,,0.00,weatherlink.com 1.10,2013-05-31 11:34:00,
2013-05-31 04:49:00,33.2,31.0,30.24,East,89,0.0,-999.0,92,-99.99,,,0.00,weatherlink.com 1.10,2013-05-31 11:49:00,
2013-05-31 05:04:00,32.3,30.0,30.24,SSW,207,0.0,-999.0,91,-99.99,,,0.00,weatherlink.com 1.10,2013-05-31 12:04:00,
2013-05-31 05:19:00,31.9,30.0,30.24,SE,145,0.0,-999.0,92,-99.99,,,0.00,weatherlink.com 1.10,2013-05-31 12:19:00,
2013-05-31 05:34:00,31.5,30.0,30.25,SE,124,0.0,-999.0,92,-99.99,,,0.00,weatherlink.com 1.10,2013-05-31 12:34:00,
2013-05-31 05:49:00,32.4,31.0,30.25,SE,126,2.0,-999.0,93,-99.99,,,0.00,weatherlink.com 1.10,2013-05-31 12:49:00,
2013-05-31 06:04:00,34.4,32.0,30.25,SE,136,1.0,-999.0,90,-99.99,,,0.00,weatherlink.com 1.10,2013-05-31 13:04:00,
2013-05-31 06:19:00,35.2,32.0,30.25,ESE,107,0.0,-999.0,87,-99.99,,,0.00,weatherlink.com 1.10,2013-05-31 13:19:00,
2013-05-31 06:34:00,38.1,35.0,30.25,ESE,106,0.0,-999.0,88,-99.99,,,0.00,weatherlink.com 1.10,2013-05-31 13:34:00,
2013-05-31 06:49:00,40.6,36.0,30.26,SSE,167,0.0,-999.0,84,-99.99,,,0.00,weatherlink.com 1.10,2013-05-31 13:49:00,
2013-05-31 07:04:00,42.1,37.0,30.26,East,79,0.0,-999.0,83,-99.99,,,0.00,weatherlink.com 1.10,2013-05-31 14:04:00,
2013-05-31 07:19:00,44.6,38.0,30.26,East,79,0.0,-999.0,77,-99.99,,,0.00,weatherlink.com 1.10,2013-05-31 14:19:00,
2013-05-31 07:34:00,46.3,37.0,30.26,ESE,113,0.0,-999.0,71,-99.99,,,0.00,weatherlink.com 1.10,2013-05-31 14:34:00,
2013-05-31 07:49:00,47.3,34.0,30.26,NE,43,0.0,-999.0,61,-99.99,,,0.00,weatherlink.com 1.10,2013-05-31 14:49:00,
2013-05-31 08:04:00,47.7,34.0,30.27,NE,34,3.0,-999.0,60,-99.99,,,0.00,weatherlink.com 1.10,2013-05-31 15:04:00,
2013-05-31 08:19:00,47.9,35.0,30.27,East,79,0.0,-999.0,61,-99.99,,,0.00,weatherlink.com 1.10,2013-05-31 15:19:00,
2013-05-31 08:34:00,48.0,35.0,30.27,NNW,348,3.0,-999.0,60,-99.99,,,0.00,weatherlink.com 1.10,2013-05-31 15:34:00,
2013-05-31 08:49:00,48.3,35.0,30.27,NE,42,2.0,-999.0,61,-99.99,,,0.00,weatherlink.com 1.10,2013-05-31 15:49:00,
2013-05-31 09:04:00,49.5,36.0,30.27,NW,321,4.0,-999.0,59,-99.99,,,0.00,weatherlink.com 1.10,2013-05-31 16:04:00,
2013-05-31 09:19:00,49.5,36.0,30.27,NNE,25,4.0,-999.0,60,-99.99,,,0.00,weatherlink.com 1.10,2013-05-31 16:19:00,
2013-05-31 09:34:00,49.8,35.0,30.27,NE,43,3.0,-999.0,58,-99.99,,,0.00,weatherlink.com 1.10,2013-05-31 16:34:00,
2013-05-31 09:49:00,51.0,36.0,30.27,NNE,32,2.0,-999.0,58,-99.99,,,0.00,weatherlink.com 1.10,2013-05-31 16:49:00,
2013-05-31 10:04:00,51.4,36.0,30.27,West,280,3.0,-999.0,56,-99.99,,,0.00,weatherlink.com 1.10,2013-05-31 17:04:00,
2013-05-31 10:19:00,52.2,37.0,30.27,WSW,240,3.0,-999.0,57,-99.99,,,0.00,weatherlink.com 1.10,2013-05-31 17:19:00,
2013-05-31 10:34:00,53.2,37.0,30.27,SSW,213,1.0,-999.0,55,-99.99,,,0.00,weatherlink.com 1.10,2013-05-31 17:34:00,
2013-05-31 10:49:00,53.9,36.0,30.27,ESE,111,1.0,-999.0,52,-99.99,,,0.00,weatherlink.com 1.10,2013-05-31 17:49:00,
2013-05-31 11:04:00,54.3,37.0,30.27,NW,317,2.0,-999.0,52,-99.99,,,0.00,weatherlink.com 1.10,2013-05-31 18:04:00,
2013-05-31 11:19:00,54.6,35.0,30.27,NW,316,4.0,-999.0,48,-99.99,,,0.00,weatherlink.com 1.10,2013-05-31 18:19:00,
2013-05-31 11:34:00,55.6,37.0,30.27,NW,306,0.0,-999.0,49,-99.99,,,0.00,weatherlink.com 1.10,2013-05-31 18:34:00,
2013-05-31 11:49:00,57.0,37.0,30.26,NW,326,4.0,-999.0,47,-99.99,,,0.00,weatherlink.com 1.10,2013-05-31 18:49:00,
2013-05-31 12:04:00,58.1,32.0,30.26,WSW,254,1.0,-999.0,38,-99.99,,,0.00,weatherlink.com 1.10,2013-05-31 19:04:00,
2013-05-31 12:19:00,57.8,34.0,30.26,SW,226,1.0,-999.0,41,-99.99,,,0.00,weatherlink.com 1.10,2013-05-31 19:19:00,
2013-05-31 12:34:00,59.0,30.0,30.26,SSE,152,4.0,-999.0,34,-99.99,,,0.00,weatherlink.com 1.10,2013-05-31 19:34:00,
2013-05-31 12:49:00,59.3,35.0,30.25,South,191,3.0,-999.0,41,-99.99,,,0.00,weatherlink.com 1.10,2013-05-31 19:49:00,
2013-05-31 13:04:00,59.1,29.0,30.25,SSE,165,0.0,-999.0,32,-99.99,,,0.00,weatherlink.com 1.10,2013-05-31 20:04:00,
2013-05-31 13:19:00,60.1,28.0,30.25,NNW,339,0.0,-999.0,30,-99.99,,,0.00,weatherlink.com 1.10,2013-05-31 20:19:00,
2013-05-31 13:34:00,60.9,33.0,30.25,WNW,284,6.0,-999.0,35,-99.99,,,0.00,weatherlink.com 1.10,2013-05-31 20:34:00,
2013-05-31 13:49:00,61.1,32.0,30.24,East,85,2.0,-999.0,34,-99.99,,,0.00,weatherlink.com 1.10,2013-05-31 20:49:00,
2013-05-31 14:04:00,61.8,36.0,30.24,WNW,287,5.0,-999.0,39,-99.99,,,0.00,weatherlink.com 1.10,2013-05-31 21:04:00,
2013-05-31 14:19:00,61.8,35.0,30.24,NE,38,3.0,-999.0,37,-99.99,,,0.00,weatherlink.com 1.10,2013-05-31 21:19:00,
2013-05-31 14:34:00,62.2,36.0,30.24,NNW,342,7.0,-999.0,38,-99.99,,,0.00,weatherlink.com 1.10,2013-05-31 21:34:00,
2013-05-31 14:49:00,62.5,35.0,30.24,NNE,29,4.0,-999.0,36,-99.99,,,0.00,weatherlink.com 1.10,2013-05-31 21:49:00,
2013-05-31 15:04:00,62.3,36.0,30.24,NE,37,0.0,-999.0,38,-99.99,,,0.00,weatherlink.com 1.10,2013-05-31 22:04:00,
2013-05-31 15:19:00,62.7,37.0,30.24,NW,318,2.0,-999.0,38,-99.99,,,0.00,weatherlink.com 1.10,2013-05-31 22:19:00,
2013-05-31 15:34:00,63.7,37.0,30.23,North,1,13.0,-999.0,37,-99.99,,,0.00,weatherlink.com 1.10,2013-05-31 22:34:00,
2013-05-31 15:49:00,63.2,36.0,30.23,WNW,300,5.0,-999.0,36,-99.99,,,0.00,weatherlink.com 1.10,2013-05-31 22:49:00,
2013-05-31 16:04:00,63.9,39.0,30.23,NNE,23,2.0,-999.0,40,-99.99,,,0.00,weatherlink.com 1.10,2013-05-31 23:04:00,
2013-05-31 16:19:00,63.8,34.0,30.23,NW,304,5.0,-999.0,33,-99.99,,,0.00,weatherlink.com 1.10,2013-05-31 23:19:00,
2013-05-31 16:34:00,64.6,33.0,30.23,NW,307,8.0,-999.0,31,-99.99,,,0.00,weatherlink.com 1.10,2013-05-31 23:34:00,
2013-05-31 16:49:00,64.1,32.0,30.23,ENE,63,0.0,-999.0,30,-99.99,,,0.00,weatherlink.com 1.10,2013-05-31 23:49:00,
2013-05-31 17:04:00,64.2,33.0,30.23,NNW,342,4.0,-999.0,31,-99.99,,,0.00,weatherlink.com 1.10,2013-06-01 00:04:00,
2013-05-31 17:19:00,64.3,30.0,30.23,NW,320,2.0,-999.0,28,-99.99,,,0.00,weatherlink.com 1.10,2013-06-01 00:19:00,
2013-05-31 17:34:00,64.4,30.0,30.23,North,359,5.0,-999.0,28,-99.99,,,0.00,weatherlink.com 1.10,2013-06-01 00:34:00,
2013-05-31 17:49:00,64.6,31.0,30.22,North,357,8.0,-999.0,28,-99.99,,,0.00,weatherlink.com 1.10,2013-06-01 00:49:00,
2013-05-31 18:04:00,64.6,28.0,30.23,North,360,0.0,-999.0,25,-99.99,,,0.00,weatherlink.com 1.10,2013-06-01 01:04:00,
2013-05-31 18:19:00,64.9,32.0,30.23,NNW,331,3.0,-999.0,29,-99.99,,,0.00,weatherlink.com 1.10,2013-06-01 01:19:00,
2013-05-31 18:34:00,64.3,29.0,30.23,NW,326,5.0,-999.0,27,-99.99,,,0.00,weatherlink.com 1.10,2013-06-01 01:34:00,
2013-05-31 18:49:00,64.2,31.0,30.23,North,349,7.0,-999.0,29,-99.99,,,0.00,weatherlink.com 1.10,2013-06-01 01:49:00,
2013-05-31 19:04:00,63.9,34.0,30.23,North,353,4.0,-999.0,33,-99.99,,,0.00,weatherlink.com 1.10,2013-06-01 02:04:00,
2013-05-31 19:19:00,63.3,33.0,30.23,North,360,6.0,-999.0,32,-99.99,,,0.00,weatherlink.com 1.10,2013-06-01 02:19:00,
2013-05-31 19:34:00,63.0,33.0,30.23,NNE,27,6.0,-999.0,33,-99.99,,,0.00,weatherlink.com 1.10,2013-06-01 02:34:00,
2013-05-31 19:49:00,62.4,32.0,30.22,NNW,335,3.0,-999.0,32,-99.99,,,0.00,weatherlink.com 1.10,2013-06-01 02:49:00,
2013-05-31 20:04:00,61.1,30.0,30.22,North,351,2.0,-999.0,31,-99.99,,,0.00,weatherlink.com 1.10,2013-06-01 03:04:00,
2013-05-31 20:19:00,58.9,31.0,30.22,NNW,335,2.0,-999.0,35,-99.99,,,0.00,weatherlink.com 1.10,2013-06-01 03:19:00,
2013-05-31 20:34:00,57.0,31.0,30.22,North,8,1.0,-999.0,38,-99.99,,,0.00,weatherlink.com 1.10,2013-06-01 03:34:00,
2013-05-31 20:49:00,54.9,33.0,30.22,ESE,105,1.0,-999.0,44,-99.99,,,0.00,weatherlink.com 1.10,2013-06-01 03:49:00,
2013-05-31 21:04:00,53.3,34.0,30.22,NNW,342,1.0,-999.0,48,-99.99,,,0.00,weatherlink.com 1.10,2013-06-01 04:04:00,
2013-05-31 21:19:00,52.8,34.0,30.22,North,349,4.0,-999.0,49,-99.99,,,0.00,weatherlink.com 1.10,2013-06-01 04:19:00,
2013-05-31 21:34:00,51.6,35.0,30.23,NNE,32,2.0,-999.0,54,-99.99,,,0.00,weatherlink.com 1.10,2013-06-01 04:34:00,
2013-05-31 21:49:00,52.6,35.0,30.23,NE,36,1.0,-999.0,52,-99.99,,,0.00,weatherlink.com 1.10,2013-06-01 04:49:00,
2013-05-31 22:04:00,52.9,36.0,30.24,WNW,298,1.0,-999.0,53,-99.99,,,0.00,weatherlink.com 1.10,2013-06-01 05:04:00,
2013-05-31 22:19:00,52.2,36.0,30.24,NW,308,2.0,-999.0,54,-99.99,,,0.00,weatherlink.com 1.10,2013-06-01 05:19:00,
2013-05-31 22:34:00,51.7,36.0,30.24,NW,319,0.0,-999.0,55,-99.99,,,0.00,weatherlink.com 1.10,2013-06-01 05:34:00,
2013-05-31 22:49:00,51.2,36.0,30.24,SSW,211,2.0,-999.0,56,-99.99,,,0.00,weatherlink.com 1.10,2013-06-01 05:49:00,
2013-05-31 23:04:00,50.8,35.0,30.24,NNE,16,0.0,-999.0,56,-99.99,,,0.00,weatherlink.com 1.10,2013-06-01 06:04:00,
2013-05-31 23:19:00,49.8,36.0,30.25,North,1,0.0,-999.0,59,-99.99,,,0.00,weatherlink.com 1.10,2013-06-01 06:19:00,
2013-05-31 23:34:00,48.3,36.0,30.25,SSW,207,0.0,-999.0,63,-99.99,,,0.00,weatherlink.com 1.10,2013-06-01 06:34:00,
2013-05-31 23:49:00,46.0,36.0,30.24,SSW,208,1.0,-999.0,68,-99.99,,,0.00,weatherlink.com 1.10,2013-06-01 06:49:00,